createdAt,value
2023-06-07T00:01:09.606Z,17.40
2023-06-07T00:03:39.100Z,17.40
2023-06-07T00:06:10.401Z,17.40
2023-06-07T00:08:38.520Z,17.40
2023-06-07T00:11:09.174Z,17.40
2023-06-07T00:13:38.212Z,17.40
2023-06-07T00:16:06.781Z,17.40
2023-06-07T00:18:34.878Z,17.30
2023-06-07T00:21:02.946Z,17.30
2023-06-07T00:23:32.324Z,17.30
2023-06-07T00:26:00.968Z,17.30
2023-06-07T00:28:29.817Z,17.30
2023-06-07T00:30:58.048Z,17.30
2023-06-07T00:33:26.037Z,17.30
2023-06-07T00:35:54.125Z,17.20
2023-06-07T00:38:22.147Z,17.30
2023-06-07T00:40:51.701Z,17.30
2023-06-07T00:43:19.969Z,17.30
2023-06-07T00:45:48.059Z,17.30
2023-06-07T00:48:16.544Z,17.20
2023-06-07T00:50:44.824Z,17.20
2023-06-07T00:53:13.141Z,17.30
2023-06-07T00:55:41.257Z,17.20
2023-06-07T00:58:11.063Z,17.20
2023-06-07T01:00:39.820Z,17.20
2023-06-07T01:03:07.993Z,17.10
2023-06-07T01:05:36.028Z,17.10
2023-06-07T01:08:04.123Z,17.10
2023-06-07T01:10:32.701Z,17.20
2023-06-07T01:13:05.088Z,17.10
2023-06-07T01:15:35.248Z,17.00
2023-06-07T01:18:06.148Z,17.00
2023-06-07T01:20:36.120Z,16.90
2023-06-07T01:23:08.701Z,16.90
2023-06-07T01:25:38.274Z,16.90
2023-06-07T01:28:07.065Z,16.90
2023-06-07T01:30:35.625Z,16.90
2023-06-07T01:33:06.375Z,16.90
2023-06-07T01:35:36.377Z,16.90
2023-06-07T01:38:04.630Z,16.90
2023-06-07T01:40:35.404Z,17.00
2023-06-07T01:43:06.562Z,17.00
2023-06-07T01:45:34.955Z,17.00
2023-06-07T01:48:03.413Z,17.00
2023-06-07T01:50:31.572Z,17.00
2023-06-07T01:52:59.686Z,17.00
2023-06-07T01:55:28.196Z,17.00
2023-06-07T01:58:08.051Z,17.00
2023-06-07T02:00:48.248Z,17.00
2023-06-07T02:03:18.805Z,17.00
2023-06-07T02:05:50.955Z,16.90
2023-06-07T02:08:27.634Z,16.90
2023-06-07T02:10:56.080Z,16.90
2023-06-07T02:13:27.020Z,17.00
2023-06-07T02:15:55.163Z,17.00
2023-06-07T02:18:23.263Z,17.00
2023-06-07T02:20:51.281Z,17.00
2023-06-07T02:23:19.518Z,17.00
2023-06-07T02:25:47.495Z,17.00
2023-06-07T02:28:15.563Z,17.00
2023-06-07T02:30:44.986Z,17.00
2023-06-07T02:33:15.053Z,17.00
2023-06-07T02:35:46.426Z,17.00
2023-06-07T02:38:14.828Z,17.00
2023-06-07T02:40:42.990Z,17.00
2023-06-07T02:43:11.109Z,17.00
2023-06-07T02:45:39.104Z,17.00
2023-06-07T02:48:08.657Z,16.90
2023-06-07T02:50:36.659Z,16.90
2023-06-07T02:53:07.312Z,16.70
2023-06-07T02:55:35.495Z,16.70
2023-06-07T02:58:03.516Z,16.50
2023-06-07T03:00:31.975Z,16.50
2023-06-07T03:03:00.402Z,16.50
2023-06-07T03:05:32.378Z,16.40
2023-06-07T03:08:01.362Z,16.30
2023-06-07T03:10:29.404Z,16.30
2023-06-07T03:12:57.426Z,16.30
2023-06-07T03:15:25.586Z,16.30
2023-06-07T03:17:53.613Z,16.40
2023-06-07T03:20:22.805Z,16.40
2023-06-07T03:22:52.289Z,16.40
2023-06-07T03:25:20.517Z,16.40
2023-06-07T03:27:48.618Z,16.40
2023-06-07T03:30:16.706Z,16.40
2023-06-07T03:32:45.644Z,16.30
2023-06-07T03:35:13.667Z,16.20
2023-06-07T03:37:41.655Z,16.20
2023-06-07T03:40:12.647Z,16.30
2023-06-07T03:42:40.717Z,16.30
2023-06-07T03:45:09.509Z,16.40
2023-06-07T03:47:38.367Z,16.30
2023-06-07T03:50:08.182Z,16.30
2023-06-07T03:52:36.263Z,16.30
2023-06-07T03:55:05.182Z,16.30
2023-06-07T03:57:34.888Z,16.30
2023-06-07T04:00:07.573Z,16.40
2023-06-07T04:02:36.055Z,16.30
2023-06-07T04:05:04.727Z,16.40
2023-06-07T04:07:34.002Z,16.50
2023-06-07T04:10:02.176Z,16.40
2023-06-07T04:12:30.518Z,16.40
2023-06-07T04:14:59.909Z,16.30
2023-06-07T04:17:28.158Z,16.30
2023-06-07T04:19:57.839Z,16.30
2023-06-07T04:22:26.649Z,16.40
2023-06-07T04:24:54.959Z,16.40
2023-06-07T04:27:24.526Z,16.40
2023-06-07T04:29:54.898Z,16.50
2023-06-07T04:32:26.464Z,16.50
2023-06-07T04:34:54.609Z,16.60
2023-06-07T04:37:25.879Z,16.60
2023-06-07T04:39:54.090Z,16.70
2023-06-07T04:42:22.258Z,16.80
2023-06-07T04:44:51.474Z,16.70
2023-06-07T04:47:19.835Z,16.60
2023-06-07T04:49:53.346Z,16.60
2023-06-07T04:52:21.881Z,16.50
2023-06-07T04:54:50.774Z,16.60
2023-06-07T04:57:19.429Z,16.50
2023-06-07T04:59:50.583Z,16.60
2023-06-07T05:02:18.884Z,16.60
2023-06-07T05:04:48.250Z,16.70
2023-06-07T05:07:16.243Z,16.70
2023-06-07T05:09:44.257Z,16.70
2023-06-07T05:12:18.646Z,16.70
2023-06-07T05:14:46.610Z,16.70
2023-06-07T05:17:17.619Z,16.70
2023-06-07T05:19:45.582Z,16.70
2023-06-07T05:22:15.823Z,16.70
2023-06-07T05:24:43.852Z,16.60
2023-06-07T05:27:11.849Z,16.70
2023-06-07T05:29:39.823Z,16.70
2023-06-07T05:32:08.791Z,16.80
2023-06-07T05:34:38.597Z,16.90
2023-06-07T05:37:08.156Z,16.90
2023-06-07T05:39:37.581Z,17.10
2023-06-07T05:42:06.435Z,17.10
2023-06-07T05:44:35.983Z,17.10
2023-06-07T05:47:04.191Z,17.10
2023-06-07T05:49:32.695Z,17.10
2023-06-07T05:52:00.900Z,17.00
2023-06-07T05:54:29.052Z,17.10
2023-06-07T05:56:58.462Z,17.10
2023-06-07T05:59:26.451Z,17.20
2023-06-07T06:01:54.548Z,17.20
2023-06-07T06:04:23.827Z,17.10
2023-06-07T06:06:51.824Z,17.20
2023-06-07T06:09:20.864Z,17.20
2023-06-07T06:11:48.841Z,17.30
2023-06-07T06:14:18.354Z,17.40
2023-06-07T06:16:46.334Z,17.50
2023-06-07T06:19:14.606Z,17.60
2023-06-07T06:21:43.397Z,17.60
2023-06-07T06:24:11.478Z,17.70
2023-06-07T06:26:39.609Z,17.70
2023-06-07T06:29:07.613Z,17.70
2023-06-07T06:31:37.125Z,17.80
2023-06-07T06:34:05.181Z,17.80
2023-06-07T06:36:33.823Z,17.80
2023-06-07T06:39:03.624Z,17.90
2023-06-07T06:41:32.265Z,18.00
2023-06-07T06:44:00.361Z,18.00
2023-06-07T06:46:28.447Z,18.00
2023-06-07T06:49:11.244Z,18.00
2023-06-07T06:51:44.225Z,18.00
2023-06-07T06:54:16.428Z,18.10
2023-06-07T06:56:44.895Z,18.10
2023-06-07T06:59:12.883Z,18.10
2023-06-07T07:01:45.579Z,18.20
2023-06-07T07:04:15.285Z,18.20
2023-06-07T07:06:43.495Z,18.30
2023-06-07T07:09:12.445Z,18.30
2023-06-07T07:11:40.588Z,18.30
2023-06-07T07:14:08.612Z,18.30
2023-06-07T07:16:38.859Z,18.40
2023-06-07T07:19:07.408Z,18.40
2023-06-07T07:21:36.905Z,18.40
2023-06-07T07:24:05.405Z,18.60
2023-06-07T07:26:33.509Z,18.60
2023-06-07T07:29:01.488Z,18.80
2023-06-07T07:31:31.343Z,18.90
2023-06-07T07:33:59.459Z,19.00
2023-06-07T07:36:27.472Z,19.00
2023-06-07T07:38:58.268Z,19.10
2023-06-07T07:41:27.444Z,19.20
2023-06-07T07:43:55.521Z,19.20
2023-06-07T07:46:23.548Z,19.30
2023-06-07T07:48:52.702Z,19.40
2023-06-07T07:51:20.982Z,19.30
2023-06-07T07:53:53.690Z,19.40
2023-06-07T07:56:26.510Z,19.40
2023-06-07T07:58:55.049Z,19.60
2023-06-07T08:01:23.714Z,19.60
2023-06-07T08:03:52.187Z,19.60
2023-06-07T08:06:20.613Z,19.60
2023-06-07T08:08:48.893Z,19.70
2023-06-07T08:11:16.983Z,19.70
2023-06-07T08:13:46.431Z,19.80
2023-06-07T08:16:14.488Z,19.90
2023-06-07T08:18:42.525Z,20.00
2023-06-07T08:21:10.626Z,20.10
2023-06-07T08:23:38.629Z,20.20
2023-06-07T08:26:06.733Z,20.30
2023-06-07T08:28:34.766Z,20.30
2023-06-07T08:31:04.919Z,20.40
2023-06-07T08:33:35.049Z,20.50
2023-06-07T08:36:03.073Z,20.60
2023-06-07T08:38:31.120Z,20.60
2023-06-07T08:41:00.225Z,20.70
2023-06-07T08:43:28.278Z,20.70
2023-06-07T08:45:57.630Z,20.70
2023-06-07T08:48:27.359Z,20.80
2023-06-07T08:50:56.886Z,20.80
2023-06-07T08:53:29.571Z,20.90
2023-06-07T08:55:59.822Z,21.00
2023-06-07T08:58:29.977Z,21.00
2023-06-07T09:01:00.817Z,21.10
2023-06-07T09:03:30.795Z,21.20
2023-06-07T09:05:58.906Z,21.20
2023-06-07T09:08:26.969Z,21.30
2023-06-07T09:10:56.007Z,21.30
2023-06-07T09:13:25.796Z,21.40
2023-06-07T09:15:54.731Z,21.50
2023-06-07T09:18:22.815Z,21.60
2023-06-07T09:20:52.206Z,21.60
2023-06-07T09:23:21.032Z,21.70
2023-06-07T09:25:55.965Z,21.80
2023-06-07T09:28:23.998Z,21.80
2023-06-07T09:30:56.699Z,21.80
2023-06-07T09:33:29.861Z,21.80
2023-06-07T09:36:06.778Z,21.80
2023-06-07T09:38:35.021Z,21.80
2023-06-07T09:41:06.555Z,21.80
2023-06-07T09:43:45.165Z,21.90
2023-06-07T09:46:14.687Z,21.90
2023-06-07T09:48:47.428Z,22.00
2023-06-07T09:51:17.430Z,22.00
2023-06-07T09:53:53.511Z,22.10
2023-06-07T09:56:22.764Z,22.10
2023-06-07T09:58:52.548Z,22.10
2023-06-07T10:01:34.748Z,22.10
2023-06-07T10:04:04.293Z,22.10
2023-06-07T10:06:35.703Z,22.10
2023-06-07T10:09:06.392Z,22.20
2023-06-07T10:11:35.843Z,22.10
2023-06-07T10:14:07.474Z,22.10
2023-06-07T10:16:39.332Z,22.10
2023-06-07T10:19:13.057Z,22.10
2023-06-07T10:21:45.328Z,22.10
2023-06-07T10:24:19.356Z,22.20
2023-06-07T10:26:54.938Z,22.20
2023-06-07T10:29:32.049Z,22.20
2023-06-07T10:32:08.987Z,22.20
2023-06-07T10:34:38.819Z,22.20
2023-06-07T10:37:09.483Z,22.20
2023-06-07T10:39:39.557Z,22.20
2023-06-07T10:42:08.805Z,22.30
2023-06-07T10:44:38.689Z,22.40
2023-06-07T10:47:25.786Z,22.40
2023-06-07T10:49:54.813Z,22.50
2023-06-07T10:52:24.811Z,22.50
2023-06-07T10:54:52.949Z,22.50
2023-06-07T10:57:34.792Z,22.60
2023-06-07T11:00:29.859Z,22.60
2023-06-07T11:03:36.601Z,22.60
2023-06-07T11:06:06.689Z,22.70
2023-06-07T11:08:38.123Z,22.70
2023-06-07T11:11:22.751Z,22.80
2023-06-07T11:14:14.070Z,22.90
2023-06-07T11:16:43.343Z,23.00
2023-06-07T11:19:18.195Z,23.10
2023-06-07T11:22:11.638Z,23.20
2023-06-07T11:24:41.015Z,23.30
2023-06-07T11:27:16.045Z,23.40
2023-06-07T11:29:45.053Z,23.40
2023-06-07T11:32:13.958Z,23.40
2023-06-07T11:34:42.231Z,23.50
2023-06-07T11:37:12.007Z,23.60
2023-06-07T11:39:41.409Z,23.70
2023-06-07T11:42:09.736Z,23.70
2023-06-07T11:44:38.298Z,23.80
2023-06-07T11:47:08.060Z,23.90
2023-06-07T11:49:43.140Z,23.90
2023-06-07T11:52:11.504Z,23.90
2023-06-07T11:54:44.885Z,24.00
2023-06-07T11:57:13.047Z,24.00
2023-06-07T11:59:43.171Z,24.00
2023-06-07T12:02:13.271Z,24.00
2023-06-07T12:04:43.708Z,24.10
2023-06-07T12:07:22.358Z,24.10
2023-06-07T12:09:54.546Z,24.10
2023-06-07T12:12:24.835Z,24.10
2023-06-07T12:15:01.624Z,24.10
2023-06-07T12:17:35.606Z,24.00
2023-06-07T12:20:10.756Z,24.00
2023-06-07T12:22:38.951Z,24.00
2023-06-07T12:25:16.588Z,24.00
2023-06-07T12:27:46.802Z,24.00
2023-06-07T12:30:15.035Z,24.00
2023-06-07T12:32:44.582Z,24.00
2023-06-07T12:35:13.736Z,24.00
2023-06-07T12:37:41.988Z,24.00
2023-06-07T12:40:11.751Z,23.90
2023-06-07T12:42:41.691Z,23.90
2023-06-07T12:45:10.845Z,23.90
2023-06-07T12:47:38.908Z,23.90
2023-06-07T12:50:07.549Z,23.90
2023-06-07T12:52:36.223Z,24.00
2023-06-07T12:55:04.741Z,24.00
2023-06-07T12:57:34.340Z,24.10
2023-06-07T13:00:02.661Z,24.20
2023-06-07T13:02:31.037Z,24.30
2023-06-07T13:04:59.244Z,24.30
2023-06-07T13:07:27.557Z,24.40
2023-06-07T13:09:56.400Z,24.50
2023-06-07T13:12:24.703Z,24.50
2023-06-07T13:14:54.167Z,24.40
2023-06-07T13:17:22.338Z,24.40
2023-06-07T13:19:50.966Z,24.30
2023-06-07T13:22:19.167Z,24.30
2023-06-07T13:24:47.221Z,24.30
2023-06-07T13:27:15.235Z,24.20
2023-06-07T13:29:43.733Z,24.20
2023-06-07T13:32:13.140Z,24.10
2023-06-07T13:34:41.201Z,24.00
2023-06-07T13:37:09.436Z,24.00
2023-06-07T13:39:37.510Z,23.90
2023-06-07T13:42:06.596Z,23.90
2023-06-07T13:44:34.593Z,23.90
2023-06-07T13:47:03.103Z,23.90
2023-06-07T13:49:32.645Z,23.80
2023-06-07T13:52:00.705Z,23.90
2023-06-07T13:54:28.828Z,23.80
2023-06-07T13:56:57.006Z,23.80
2023-06-07T13:59:25.553Z,23.80
2023-06-07T14:01:54.270Z,23.80
2023-06-07T14:04:24.874Z,23.80
2023-06-07T14:06:54.475Z,23.80
2023-06-07T14:09:22.634Z,23.90
2023-06-07T14:11:51.536Z,23.90
2023-06-07T14:14:20.553Z,23.90
2023-06-07T14:16:48.692Z,24.00
2023-06-07T14:19:16.892Z,24.00
2023-06-07T14:21:44.927Z,24.00
2023-06-07T14:24:14.424Z,24.00
2023-06-07T14:26:42.485Z,23.90
2023-06-07T14:29:10.554Z,23.70
2023-06-07T14:31:38.888Z,23.70
2023-06-07T14:34:06.984Z,23.60
2023-06-07T14:36:34.980Z,23.60
2023-06-07T14:39:03.033Z,23.50
2023-06-07T14:41:32.468Z,23.50
2023-06-07T14:44:00.877Z,23.60
2023-06-07T14:46:28.923Z,24.10
2023-06-07T14:48:57.015Z,24.90
2023-06-07T14:51:27.269Z,25.80
2023-06-07T14:53:55.322Z,26.30
2023-06-07T14:56:23.462Z,26.40
2023-06-07T14:58:52.822Z,26.40
2023-06-07T15:01:21.276Z,26.70
2023-06-07T15:03:49.389Z,27.20
2023-06-07T15:06:17.529Z,27.70
2023-06-07T15:08:47.490Z,28.00
2023-06-07T15:11:16.382Z,27.50
2023-06-07T15:13:44.355Z,26.90
2023-06-07T15:16:14.120Z,26.30
2023-06-07T15:18:42.149Z,26.00
2023-06-07T15:21:10.108Z,26.00
2023-06-07T15:23:38.638Z,26.10
2023-06-07T15:26:06.738Z,25.80
2023-06-07T15:28:35.109Z,25.50
2023-06-07T15:31:03.238Z,25.10
2023-06-07T15:33:32.607Z,24.80
2023-06-07T15:36:00.638Z,24.60
2023-06-07T15:38:31.319Z,24.40
2023-06-07T15:40:59.342Z,24.30
2023-06-07T15:43:27.432Z,24.10
2023-06-07T15:45:55.507Z,24.10
2023-06-07T15:48:24.422Z,24.00
2023-06-07T15:50:53.865Z,24.00
2023-06-07T15:53:22.454Z,24.00
2023-06-07T15:55:50.419Z,24.00
2023-06-07T15:58:18.396Z,24.00
2023-06-07T16:00:48.118Z,24.00
2023-06-07T16:03:17.079Z,24.00
2023-06-07T16:05:45.415Z,24.10
2023-06-07T16:08:15.357Z,24.00
2023-06-07T16:10:43.387Z,24.00
2023-06-07T16:13:11.730Z,24.00
2023-06-07T16:15:39.874Z,24.00
2023-06-07T16:18:07.978Z,24.10
2023-06-07T16:20:36.023Z,24.10
2023-06-07T16:23:04.283Z,24.00
2023-06-07T16:25:33.720Z,24.00
2023-06-07T16:28:01.725Z,24.00
2023-06-07T16:30:29.953Z,23.90
2023-06-07T16:32:58.111Z,23.70
2023-06-07T16:35:26.267Z,23.70
2023-06-07T16:37:54.256Z,23.70
2023-06-07T16:40:22.269Z,23.60
2023-06-07T16:42:51.653Z,23.60
2023-06-07T16:45:20.174Z,23.70
2023-06-07T16:47:49.371Z,23.60
2023-06-07T16:50:17.461Z,23.50
2023-06-07T16:52:45.576Z,23.50
2023-06-07T16:55:13.879Z,23.50
2023-06-07T16:57:41.974Z,23.50
2023-06-07T17:00:12.695Z,23.40
2023-06-07T17:02:40.860Z,23.30
2023-06-07T17:05:09.813Z,23.30
2023-06-07T17:07:37.910Z,23.30
2023-06-07T17:10:07.067Z,23.20
2023-06-07T17:12:35.970Z,23.10
2023-06-07T17:15:04.077Z,23.10
2023-06-07T17:17:33.485Z,23.10
2023-06-07T17:20:01.612Z,23.10
2023-06-07T17:22:29.708Z,23.10
2023-06-07T17:24:57.698Z,23.00
2023-06-07T17:27:25.875Z,23.00
2023-06-07T17:29:53.858Z,22.90
2023-06-07T17:32:22.136Z,22.90
2023-06-07T17:34:51.474Z,22.90
2023-06-07T17:37:21.854Z,22.90
2023-06-07T17:39:49.933Z,22.90
2023-06-07T17:42:23.832Z,22.90
2023-06-07T17:44:53.409Z,22.70
2023-06-07T17:47:23.573Z,22.60
2023-06-07T17:49:53.170Z,22.60
2023-06-07T17:52:23.558Z,22.60
2023-06-07T17:54:52.085Z,22.60
2023-06-07T17:57:20.070Z,22.50
2023-06-07T17:59:48.358Z,22.40
2023-06-07T18:02:16.473Z,22.40
2023-06-07T18:04:44.517Z,22.40
2023-06-07T18:07:14.372Z,22.40
2023-06-07T18:09:45.181Z,22.40
2023-06-07T18:12:14.155Z,22.40
2023-06-07T18:14:42.548Z,22.30
2023-06-07T18:17:10.682Z,22.20
2023-06-07T18:19:39.500Z,22.10
2023-06-07T18:22:07.543Z,22.00
2023-06-07T18:24:37.064Z,22.00
2023-06-07T18:27:05.929Z,21.90
2023-06-07T18:29:34.890Z,21.80
2023-06-07T18:32:02.892Z,21.70
2023-06-07T18:34:32.788Z,21.70
2023-06-07T18:37:02.334Z,21.70
2023-06-07T18:39:30.341Z,21.60
2023-06-07T18:41:59.784Z,21.50
2023-06-07T18:44:27.794Z,21.50
2023-06-07T18:46:55.969Z,21.50
2023-06-07T18:49:23.997Z,21.40
2023-06-07T18:51:51.976Z,21.40
2023-06-07T18:54:19.981Z,21.30
2023-06-07T18:56:48.091Z,21.20
2023-06-07T18:59:17.435Z,21.20
2023-06-07T19:01:51.954Z,21.10
2023-06-07T19:04:20.609Z,21.10
2023-06-07T19:06:51.648Z,21.10
2023-06-07T19:09:20.302Z,21.10
2023-06-07T19:11:48.538Z,21.00
2023-06-07T19:14:23.878Z,20.90
2023-06-07T19:16:53.142Z,20.90
2023-06-07T19:19:22.555Z,20.90
2023-06-07T19:21:50.564Z,20.80
2023-06-07T19:24:18.755Z,20.70
2023-06-07T19:26:47.017Z,20.70
2023-06-07T19:29:14.994Z,20.70
2023-06-07T19:31:44.372Z,20.50
2023-06-07T19:34:12.381Z,20.40
2023-06-07T19:36:40.374Z,20.40
2023-06-07T19:39:08.422Z,20.40
2023-06-07T19:41:36.956Z,20.40
2023-06-07T19:44:05.247Z,20.30
2023-06-07T19:46:33.279Z,20.30
2023-06-07T19:49:02.760Z,20.20
2023-06-07T19:51:30.887Z,20.20
2023-06-07T19:53:58.917Z,20.20
2023-06-07T19:56:27.264Z,20.10
2023-06-07T19:58:55.446Z,20.00
2023-06-07T20:01:23.500Z,20.00
2023-06-07T20:03:51.665Z,20.00
2023-06-07T20:06:21.105Z,20.00
2023-06-07T20:08:49.077Z,20.00
2023-06-07T20:11:18.610Z,20.00
2023-06-07T20:13:47.527Z,19.90
2023-06-07T20:16:15.550Z,19.80
2023-06-07T20:18:43.633Z,19.70
2023-06-07T20:21:11.682Z,19.70
2023-06-07T20:23:41.836Z,19.80
2023-06-07T20:26:09.918Z,19.70
2023-06-07T20:28:37.981Z,19.80
2023-06-07T20:31:06.841Z,19.70
2023-06-07T20:33:35.000Z,19.70
2023-06-07T20:36:03.251Z,19.60
2023-06-07T20:38:31.280Z,19.60
2023-06-07T20:41:01.165Z,19.50
2023-06-07T20:43:29.455Z,19.40
2023-06-07T20:45:57.558Z,19.40
2023-06-07T20:48:25.679Z,19.40
2023-06-07T20:50:53.651Z,19.30
2023-06-07T20:53:21.642Z,19.30
2023-06-07T20:55:49.902Z,19.20
2023-06-07T20:58:21.839Z,19.20
2023-06-07T21:00:50.429Z,19.20
2023-06-07T21:03:18.532Z,19.20
2023-06-07T21:05:46.600Z,19.10
2023-06-07T21:08:14.688Z,19.10
2023-06-07T21:10:42.661Z,19.10
2023-06-07T21:13:10.739Z,19.10
2023-06-07T21:15:40.088Z,19.00
2023-06-07T21:18:08.097Z,19.00
2023-06-07T21:20:36.233Z,19.00
2023-06-07T21:23:04.226Z,18.90
2023-06-07T21:25:33.089Z,18.90
2023-06-07T21:28:01.236Z,18.90
2023-06-07T21:30:29.252Z,18.90
2023-06-07T21:33:01.350Z,18.80
2023-06-07T21:35:29.364Z,18.80
2023-06-07T21:37:59.151Z,18.80
2023-06-07T21:40:28.069Z,18.80
2023-06-07T21:42:56.153Z,18.70
2023-06-07T21:45:26.901Z,18.70
2023-06-07T21:47:54.955Z,18.60
2023-06-07T21:50:24.978Z,18.70
2023-06-07T21:52:54.122Z,18.70
2023-06-07T21:55:22.919Z,18.60
2023-06-07T21:57:50.992Z,18.60
2023-06-07T22:00:21.354Z,18.60
2023-06-07T22:02:49.423Z,18.60
2023-06-07T22:05:18.772Z,18.60
2023-06-07T22:07:48.219Z,18.60
2023-06-07T22:10:16.368Z,18.60
2023-06-07T22:12:44.673Z,18.60
2023-06-07T22:15:13.733Z,18.60
2023-06-07T22:17:41.788Z,18.60
2023-06-07T22:20:10.636Z,18.60
2023-06-07T22:22:38.804Z,18.60
2023-06-07T22:25:09.648Z,18.50
2023-06-07T22:27:38.274Z,18.50
2023-06-07T22:30:08.148Z,18.50
2023-06-07T22:32:37.010Z,18.50
2023-06-07T22:35:05.906Z,18.50
2023-06-07T22:37:34.901Z,18.50
2023-06-07T22:40:05.520Z,18.40
2023-06-07T22:42:35.334Z,18.40
2023-06-07T22:45:03.471Z,18.40
2023-06-07T22:47:33.516Z,18.40
2023-06-07T22:50:02.596Z,18.40
2023-06-07T22:52:34.292Z,18.30
2023-06-07T22:55:02.936Z,18.30
2023-06-07T22:57:33.826Z,18.40
2023-06-07T23:00:03.095Z,18.40
2023-06-07T23:02:32.258Z,18.40
2023-06-07T23:05:00.681Z,18.30
2023-06-07T23:07:31.007Z,18.30
2023-06-07T23:09:59.035Z,18.30
2023-06-07T23:12:27.002Z,18.20
2023-06-07T23:14:56.441Z,18.20
2023-06-07T23:17:24.768Z,18.20
2023-06-07T23:19:52.791Z,18.10
2023-06-07T23:22:20.891Z,18.20
2023-06-07T23:24:49.246Z,18.20
2023-06-07T23:27:17.414Z,18.10
2023-06-07T23:29:45.833Z,18.20
2023-06-07T23:32:15.456Z,18.10
2023-06-07T23:34:43.578Z,18.10
2023-06-07T23:37:11.568Z,18.10
2023-06-07T23:39:39.668Z,18.10
2023-06-07T23:42:07.902Z,18.10
2023-06-07T23:44:36.042Z,18.20
2023-06-07T23:47:04.254Z,18.20
2023-06-07T23:49:35.492Z,18.20
2023-06-07T23:52:03.933Z,18.20
2023-06-07T23:54:32.114Z,18.20
2023-06-07T23:57:00.357Z,18.20
2023-06-07T23:59:29.522Z,18.20
